createdAt,value
2022-11-27T00:01:00.660Z,13.30
2022-11-27T00:03:29.347Z,13.30
2022-11-27T00:05:58.908Z,13.20
2022-11-27T00:08:27.277Z,13.20
2022-11-27T00:10:55.696Z,13.20
2022-11-27T00:13:25.565Z,13.20
2022-11-27T00:15:53.949Z,13.10
2022-11-27T00:18:22.406Z,13.20
2022-11-27T00:20:50.860Z,13.20
2022-11-27T00:23:19.221Z,13.30
2022-11-27T00:25:51.183Z,13.20
2022-11-27T00:28:19.593Z,13.10
2022-11-27T00:30:49.485Z,13.20
2022-11-27T00:33:17.876Z,13.10
2022-11-27T00:35:46.374Z,13.10
2022-11-27T00:38:14.768Z,13.10
2022-11-27T00:40:43.199Z,13.10
2022-11-27T00:43:11.652Z,13.10
2022-11-27T00:45:40.001Z,13.00
2022-11-27T00:48:09.859Z,13.10
2022-11-27T00:50:38.356Z,13.10
2022-11-27T00:53:06.755Z,13.00
2022-11-27T00:55:35.203Z,12.90
2022-11-27T00:58:03.696Z,12.90
2022-11-27T01:00:32.162Z,12.90
2022-11-27T01:03:00.631Z,12.80
2022-11-27T01:05:30.437Z,12.80
2022-11-27T01:07:58.969Z,12.70
2022-11-27T01:10:27.364Z,12.80
2022-11-27T01:12:55.811Z,12.70
2022-11-27T01:15:24.194Z,12.70
2022-11-27T01:17:52.565Z,12.70
2022-11-27T01:20:21.026Z,12.60
2022-11-27T01:22:50.829Z,12.60
2022-11-27T01:25:21.906Z,12.60
2022-11-27T01:27:54.162Z,12.60
2022-11-27T01:30:22.600Z,12.60
2022-11-27T01:32:50.964Z,12.60
2022-11-27T01:35:19.349Z,12.50
2022-11-27T01:37:47.756Z,12.50
2022-11-27T01:40:17.824Z,12.40
2022-11-27T01:42:46.235Z,12.40
2022-11-27T01:45:15.942Z,12.50
2022-11-27T01:47:46.673Z,12.40
2022-11-27T01:50:17.984Z,12.40
2022-11-27T01:52:49.624Z,12.20
2022-11-27T01:55:21.947Z,11.80
2022-11-27T01:57:51.096Z,11.80
2022-11-27T02:00:20.474Z,11.60
2022-11-27T02:02:48.857Z,11.60
2022-11-27T02:05:18.473Z,11.50
2022-11-27T02:07:47.327Z,11.40
2022-11-27T02:10:16.612Z,11.60
2022-11-27T02:12:51.965Z,11.60
2022-11-27T02:15:22.329Z,11.80
2022-11-27T02:17:54.595Z,11.80
2022-11-27T02:20:37.781Z,11.80
2022-11-27T02:23:23.355Z,11.70
2022-11-27T02:26:02.148Z,11.70
2022-11-27T02:28:39.686Z,11.80
2022-11-27T02:31:11.933Z,12.00
2022-11-27T02:33:43.548Z,12.00
2022-11-27T02:36:14.985Z,12.00
2022-11-27T02:38:46.002Z,12.00
2022-11-27T02:41:17.295Z,12.10
2022-11-27T02:43:47.672Z,12.20
2022-11-27T02:46:17.854Z,12.30
2022-11-27T02:48:48.618Z,12.30
2022-11-27T02:51:19.602Z,12.20
2022-11-27T02:53:51.005Z,12.10
2022-11-27T02:56:23.150Z,11.90
2022-11-27T02:58:52.346Z,11.80
2022-11-27T03:01:23.480Z,11.80
2022-11-27T03:03:53.677Z,11.80
2022-11-27T03:06:26.444Z,11.90
2022-11-27T03:08:56.913Z,11.90
2022-11-27T03:11:25.676Z,11.90
2022-11-27T03:13:55.954Z,12.00
2022-11-27T03:16:29.506Z,12.00
2022-11-27T03:19:00.529Z,12.00
2022-11-27T03:21:30.222Z,11.90
2022-11-27T03:23:58.756Z,11.90
2022-11-27T03:26:27.446Z,11.90
2022-11-27T03:28:56.688Z,11.90
2022-11-27T03:31:26.537Z,11.90
2022-11-27T03:33:55.355Z,11.80
2022-11-27T03:36:24.102Z,11.80
2022-11-27T03:38:54.237Z,11.90
2022-11-27T03:41:26.275Z,11.90
2022-11-27T03:43:59.831Z,11.90
2022-11-27T03:46:35.620Z,11.90
2022-11-27T03:49:08.950Z,12.00
2022-11-27T03:51:41.371Z,12.00
2022-11-27T03:54:12.187Z,11.90
2022-11-27T03:56:43.024Z,11.90
2022-11-27T03:59:13.810Z,11.90
2022-11-27T04:01:43.801Z,11.90
2022-11-27T04:04:13.305Z,11.90
2022-11-27T04:06:41.814Z,11.90
2022-11-27T04:09:10.175Z,11.90
2022-11-27T04:11:38.615Z,12.00
2022-11-27T04:14:07.042Z,12.00
2022-11-27T04:16:35.504Z,12.00
2022-11-27T04:19:05.472Z,12.00
2022-11-27T04:21:33.915Z,12.10
2022-11-27T04:24:02.295Z,12.20
2022-11-27T04:26:30.723Z,12.10
2022-11-27T04:28:59.187Z,12.10
2022-11-27T04:31:27.578Z,12.00
2022-11-27T04:33:55.989Z,12.00
2022-11-27T04:36:25.785Z,12.00
2022-11-27T04:38:54.173Z,12.00
2022-11-27T04:41:22.528Z,12.00
2022-11-27T04:43:50.869Z,12.00
2022-11-27T04:46:19.242Z,12.00
2022-11-27T04:48:47.615Z,11.90
2022-11-27T04:51:15.952Z,11.90
2022-11-27T04:53:45.668Z,12.00
2022-11-27T04:56:13.994Z,12.00
2022-11-27T04:58:42.345Z,12.00
2022-11-27T05:01:10.856Z,12.00
2022-11-27T05:03:39.295Z,11.90
2022-11-27T05:06:07.652Z,12.00
2022-11-27T05:08:35.988Z,12.00
2022-11-27T05:11:06.900Z,12.00
2022-11-27T05:13:35.823Z,12.00
2022-11-27T05:16:04.288Z,12.10
2022-11-27T05:18:32.729Z,12.20
2022-11-27T05:21:01.873Z,12.20
2022-11-27T05:23:30.583Z,12.20
2022-11-27T05:25:59.032Z,12.30
2022-11-27T05:28:28.833Z,12.30
2022-11-27T05:30:57.294Z,12.30
2022-11-27T05:33:25.668Z,12.30
2022-11-27T05:35:54.029Z,12.20
2022-11-27T05:38:22.399Z,12.10
2022-11-27T05:40:50.722Z,12.20
2022-11-27T05:43:19.085Z,12.20
2022-11-27T05:45:48.846Z,12.20
2022-11-27T05:48:17.158Z,12.10
2022-11-27T05:50:45.480Z,12.20
2022-11-27T05:53:13.815Z,12.10
2022-11-27T05:55:42.148Z,12.10
2022-11-27T05:58:10.486Z,12.00
2022-11-27T06:00:38.837Z,12.00
2022-11-27T06:03:08.733Z,12.10
2022-11-27T06:05:39.689Z,12.10
2022-11-27T06:08:08.036Z,12.10
2022-11-27T06:10:36.680Z,12.10
2022-11-27T06:13:05.074Z,12.10
2022-11-27T06:15:33.489Z,12.10
2022-11-27T06:18:01.853Z,12.20
2022-11-27T06:20:31.631Z,12.20
2022-11-27T06:23:00.209Z,12.20
2022-11-27T06:25:28.536Z,12.30
2022-11-27T06:27:56.904Z,12.30
2022-11-27T06:30:25.226Z,12.30
2022-11-27T06:32:53.561Z,12.20
2022-11-27T06:35:22.874Z,12.30
2022-11-27T06:37:52.615Z,12.30
2022-11-27T06:40:20.900Z,12.50
2022-11-27T06:42:49.243Z,12.50
2022-11-27T06:45:17.593Z,12.60
2022-11-27T06:47:45.906Z,12.70
2022-11-27T06:50:14.228Z,12.80
2022-11-27T06:52:42.565Z,12.80
2022-11-27T06:55:12.290Z,12.80
2022-11-27T06:57:40.626Z,12.70
2022-11-27T07:00:09.681Z,12.70
2022-11-27T07:02:38.204Z,12.70
2022-11-27T07:05:06.631Z,12.60
2022-11-27T07:07:36.752Z,12.70
2022-11-27T07:10:08.696Z,12.80
2022-11-27T07:12:38.453Z,12.90
2022-11-27T07:15:07.258Z,12.90
2022-11-27T07:17:35.625Z,12.80
2022-11-27T07:20:04.051Z,12.70
2022-11-27T07:22:33.249Z,12.30
2022-11-27T07:25:01.600Z,12.30
2022-11-27T07:27:29.946Z,12.40
2022-11-27T07:29:59.659Z,12.40
2022-11-27T07:32:28.020Z,12.50
2022-11-27T07:34:56.356Z,12.60
2022-11-27T07:37:24.669Z,12.50
2022-11-27T07:40:02.645Z,12.40
2022-11-27T07:42:39.430Z,12.40
2022-11-27T07:45:09.990Z,12.30
2022-11-27T07:47:38.534Z,12.40
2022-11-27T07:50:08.407Z,12.40
2022-11-27T07:52:41.569Z,12.40
2022-11-27T07:55:11.559Z,12.40
2022-11-27T07:57:39.908Z,12.30
2022-11-27T08:00:10.589Z,12.40
2022-11-27T08:02:38.927Z,12.60
2022-11-27T08:05:12.391Z,12.70
2022-11-27T08:07:41.797Z,12.70
2022-11-27T08:10:10.349Z,12.60
2022-11-27T08:12:38.793Z,12.60
2022-11-27T08:15:07.726Z,12.70
2022-11-27T08:17:37.457Z,12.70
2022-11-27T08:20:07.036Z,12.80
2022-11-27T08:22:35.439Z,12.80
2022-11-27T08:25:03.927Z,12.90
2022-11-27T08:27:32.418Z,12.90
2022-11-27T08:30:00.792Z,13.00
2022-11-27T08:32:29.157Z,13.00
2022-11-27T08:34:58.889Z,13.10
2022-11-27T08:37:27.272Z,13.10
2022-11-27T08:39:55.572Z,13.20
2022-11-27T08:42:23.894Z,13.30
2022-11-27T08:44:52.277Z,13.30
2022-11-27T08:47:20.632Z,13.30
2022-11-27T08:49:48.903Z,13.40
2022-11-27T08:52:18.660Z,13.40
2022-11-27T08:54:46.986Z,13.30
2022-11-27T08:57:15.361Z,13.20
2022-11-27T08:59:43.792Z,13.30
2022-11-27T09:02:12.606Z,13.30
2022-11-27T09:04:41.156Z,13.50
2022-11-27T09:07:12.238Z,13.50
2022-11-27T09:09:42.036Z,13.50
2022-11-27T09:12:10.416Z,13.60
2022-11-27T09:14:39.172Z,13.70
2022-11-27T09:17:07.777Z,13.60
2022-11-27T09:19:36.086Z,13.50
2022-11-27T09:22:04.519Z,13.40
2022-11-27T09:24:32.963Z,13.30
2022-11-27T09:27:02.637Z,13.40
2022-11-27T09:29:30.977Z,13.50
2022-11-27T09:31:59.329Z,13.60
2022-11-27T09:34:27.689Z,13.70
2022-11-27T09:36:56.067Z,13.80
2022-11-27T09:39:26.379Z,13.90
2022-11-27T09:41:56.175Z,14.00
2022-11-27T09:44:31.862Z,14.00
2022-11-27T09:47:01.811Z,14.00
2022-11-27T09:49:34.432Z,13.90
2022-11-27T09:52:04.481Z,14.00
2022-11-27T09:54:36.876Z,14.10
2022-11-27T09:57:05.870Z,14.20
2022-11-27T09:59:40.447Z,14.40
2022-11-27T10:02:14.683Z,14.30
2022-11-27T10:05:05.985Z,14.20
2022-11-27T10:07:36.190Z,14.20
2022-11-27T10:10:09.247Z,14.30
2022-11-27T10:12:42.670Z,14.40
2022-11-27T10:15:15.995Z,14.50
2022-11-27T10:17:46.131Z,14.30
2022-11-27T10:20:19.971Z,14.30
2022-11-27T10:22:54.712Z,14.20
2022-11-27T10:25:26.469Z,14.20
2022-11-27T10:28:01.746Z,14.20
2022-11-27T10:30:33.466Z,14.30
2022-11-27T10:33:01.999Z,14.30
2022-11-27T10:35:31.973Z,14.30
2022-11-27T10:38:06.466Z,14.20
2022-11-27T10:40:38.218Z,14.30
2022-11-27T10:43:11.490Z,14.30
2022-11-27T10:45:44.446Z,14.20
2022-11-27T10:48:13.606Z,14.20
2022-11-27T10:50:42.653Z,14.10
2022-11-27T10:53:12.939Z,14.20
2022-11-27T10:55:55.589Z,14.20
2022-11-27T10:58:26.229Z,14.20
2022-11-27T11:01:02.983Z,14.20
2022-11-27T11:03:31.316Z,14.30
2022-11-27T11:08:49.817Z,14.50
2022-11-27T11:11:26.282Z,14.60
2022-11-27T11:13:55.687Z,14.70
2022-11-27T11:16:33.304Z,14.60
2022-11-27T11:19:03.026Z,14.60
2022-11-27T11:21:32.912Z,14.50
2022-11-27T11:24:04.226Z,14.40
2022-11-27T11:26:35.225Z,14.40
2022-11-27T11:29:08.240Z,14.30
2022-11-27T11:31:41.021Z,14.30
2022-11-27T11:34:16.788Z,14.30
2022-11-27T11:36:56.804Z,14.30
2022-11-27T11:39:26.688Z,14.20
2022-11-27T11:41:55.292Z,14.10
2022-11-27T11:44:26.028Z,14.10
2022-11-27T11:46:56.059Z,14.10
2022-11-27T11:49:25.336Z,14.20
2022-11-27T11:52:04.205Z,14.20
2022-11-27T11:54:48.256Z,14.20
2022-11-27T11:57:39.836Z,14.10
2022-11-27T12:00:10.893Z,14.10
2022-11-27T12:02:48.361Z,14.20
2022-11-27T12:05:21.283Z,14.10
2022-11-27T12:07:54.516Z,14.20
2022-11-27T12:10:24.340Z,14.10
2022-11-27T12:12:58.145Z,14.20
2022-11-27T12:15:29.328Z,14.10
2022-11-27T12:18:02.279Z,14.10
2022-11-27T12:20:41.012Z,14.10
2022-11-27T12:23:39.381Z,14.10
2022-11-27T12:26:12.216Z,14.00
2022-11-27T12:28:59.003Z,14.00
2022-11-27T12:31:36.488Z,14.10
2022-11-27T12:34:07.089Z,14.10
2022-11-27T12:36:44.554Z,14.10
2022-11-27T12:39:15.646Z,14.10
2022-11-27T12:41:47.728Z,14.10
2022-11-27T12:44:20.292Z,14.10
2022-11-27T12:46:53.065Z,14.10
2022-11-27T12:49:25.785Z,14.10
2022-11-27T12:51:58.214Z,14.20
2022-11-27T12:54:28.500Z,14.30
2022-11-27T12:56:58.084Z,14.20
2022-11-27T12:59:28.098Z,14.20
2022-11-27T13:02:01.171Z,14.20
2022-11-27T13:04:33.777Z,14.20
2022-11-27T13:07:04.287Z,14.20
2022-11-27T13:09:38.484Z,14.30
2022-11-27T13:12:07.109Z,14.30
2022-11-27T13:14:37.870Z,14.30
2022-11-27T13:17:09.904Z,14.30
2022-11-27T13:19:43.205Z,14.20
2022-11-27T13:22:13.600Z,14.20
2022-11-27T13:24:42.582Z,14.30
2022-11-27T13:27:13.401Z,14.30
2022-11-27T13:29:44.972Z,14.30
2022-11-27T13:32:20.391Z,14.30
2022-11-27T13:34:51.202Z,14.30
2022-11-27T13:37:26.895Z,14.30
2022-11-27T13:40:00.158Z,14.40
2022-11-27T13:42:29.293Z,14.30
2022-11-27T13:44:59.517Z,14.30
2022-11-27T13:47:29.291Z,14.20
2022-11-27T13:50:03.306Z,14.20
2022-11-27T13:52:31.694Z,14.10
2022-11-27T13:55:00.729Z,14.10
2022-11-27T13:57:30.177Z,14.00
2022-11-27T13:59:59.773Z,14.10
2022-11-27T14:02:40.282Z,14.00
2022-11-27T14:05:10.439Z,14.00
2022-11-27T14:07:41.351Z,14.00
2022-11-27T14:10:11.387Z,14.00
2022-11-27T14:12:39.917Z,14.00
2022-11-27T14:15:10.147Z,14.00
2022-11-27T14:17:40.676Z,14.00
2022-11-27T14:20:23.999Z,14.00
2022-11-27T14:25:42.795Z,14.00
2022-11-27T14:28:15.371Z,13.90
2022-11-27T14:30:47.317Z,13.90
2022-11-27T14:33:19.692Z,14.00
2022-11-27T14:35:51.444Z,14.00
2022-11-27T14:38:21.233Z,14.00
2022-11-27T14:40:50.344Z,14.00
2022-11-27T14:43:19.856Z,14.00
2022-11-27T14:45:49.932Z,14.00
2022-11-27T14:48:20.621Z,14.10
2022-11-27T14:50:49.427Z,14.00
2022-11-27T14:53:18.747Z,14.00
2022-11-27T14:55:49.264Z,14.00
2022-11-27T14:58:20.164Z,13.90
2022-11-27T15:00:59.710Z,13.90
2022-11-27T15:03:28.292Z,13.90
2022-11-27T15:05:58.475Z,13.90
2022-11-27T15:08:27.329Z,13.80
2022-11-27T15:10:57.755Z,13.80
2022-11-27T15:13:27.843Z,13.70
2022-11-27T15:15:59.170Z,13.80
2022-11-27T15:18:28.235Z,13.70
2022-11-27T15:20:57.083Z,13.60
2022-11-27T15:23:27.934Z,13.50
2022-11-27T15:26:14.317Z,13.50
2022-11-27T15:28:50.836Z,13.60
2022-11-27T15:31:26.882Z,13.60
2022-11-27T15:34:02.478Z,13.50
2022-11-27T15:36:40.671Z,13.50
2022-11-27T15:39:23.138Z,13.50
2022-11-27T15:41:53.864Z,13.40
2022-11-27T15:44:22.273Z,13.40
2022-11-27T15:46:51.211Z,13.40
2022-11-27T15:49:20.808Z,13.40
2022-11-27T15:51:49.184Z,13.30
2022-11-27T15:54:17.577Z,13.30
2022-11-27T15:56:46.860Z,13.30
2022-11-27T15:59:17.917Z,13.40
2022-11-27T16:01:46.297Z,13.40
2022-11-27T16:04:14.692Z,13.40
2022-11-27T16:06:43.118Z,13.40
2022-11-27T16:09:11.595Z,13.40
2022-11-27T16:11:40.029Z,13.30
2022-11-27T16:14:08.446Z,13.40
2022-11-27T16:16:38.371Z,13.40
2022-11-27T16:19:06.889Z,13.40
2022-11-27T16:21:36.027Z,13.30
2022-11-27T16:24:05.549Z,13.40
2022-11-27T16:26:34.200Z,13.40
2022-11-27T16:29:02.525Z,13.30
2022-11-27T16:31:30.998Z,13.30
2022-11-27T16:34:01.981Z,13.30
2022-11-27T16:36:30.542Z,13.30
2022-11-27T16:38:58.892Z,13.30
2022-11-27T16:41:27.577Z,13.30
2022-11-27T16:43:56.979Z,13.30
2022-11-27T16:46:27.052Z,13.40
2022-11-27T16:48:55.929Z,13.30
2022-11-27T16:51:26.618Z,13.30
2022-11-27T16:53:56.069Z,13.30
2022-11-27T16:56:25.665Z,13.30
2022-11-27T16:58:59.329Z,13.30
2022-11-27T17:01:30.612Z,13.30
2022-11-27T17:03:59.716Z,13.20
2022-11-27T17:06:30.989Z,13.20
2022-11-27T17:09:00.195Z,13.20
2022-11-27T17:11:29.326Z,13.20
2022-11-27T17:13:58.783Z,13.20
2022-11-27T17:16:27.280Z,13.30
2022-11-27T17:18:55.719Z,13.30
2022-11-27T17:21:26.360Z,13.30
2022-11-27T17:23:56.928Z,13.30
2022-11-27T17:26:25.930Z,13.30
2022-11-27T17:28:56.345Z,13.30
2022-11-27T17:31:26.710Z,13.30
2022-11-27T17:33:56.772Z,13.30
2022-11-27T17:36:25.492Z,13.20
2022-11-27T17:38:54.016Z,13.20
2022-11-27T17:41:23.984Z,13.20
2022-11-27T17:43:52.346Z,13.30
2022-11-27T17:46:21.439Z,13.30
2022-11-27T17:48:50.740Z,13.30
2022-11-27T17:51:19.504Z,13.30
2022-11-27T17:53:48.600Z,13.30
2022-11-27T17:56:18.617Z,13.30
2022-11-27T17:58:48.744Z,13.30
2022-11-27T18:01:18.280Z,13.20
2022-11-27T18:03:47.379Z,13.20
2022-11-27T18:06:16.369Z,13.20
2022-11-27T18:08:45.452Z,13.30
2022-11-27T18:11:15.120Z,13.30
2022-11-27T18:13:43.503Z,13.30
2022-11-27T18:16:14.237Z,13.30
2022-11-27T18:18:43.685Z,13.20
2022-11-27T18:21:17.875Z,13.20
2022-11-27T18:24:20.705Z,13.20
2022-11-27T18:27:06.615Z,13.20
2022-11-27T18:29:24.645Z,13.20
2022-11-27T18:31:54.481Z,13.20
2022-11-27T18:34:23.065Z,13.30
2022-11-27T18:36:51.510Z,13.30
2022-11-27T18:39:19.858Z,13.30
2022-11-27T18:41:48.268Z,13.30
2022-11-27T18:44:16.589Z,13.30
2022-11-27T18:46:45.010Z,13.30
2022-11-27T18:49:14.803Z,13.20
2022-11-27T18:51:43.235Z,13.30
2022-11-27T18:54:11.671Z,13.30
2022-11-27T18:56:40.075Z,13.30
2022-11-27T18:59:08.582Z,13.30
2022-11-27T19:01:41.872Z,13.30
2022-11-27T19:04:11.150Z,13.30
2022-11-27T19:06:42.301Z,13.30
2022-11-27T19:09:11.558Z,13.30
2022-11-27T19:11:40.252Z,13.30
2022-11-27T19:14:09.026Z,13.30
2022-11-27T19:16:39.164Z,13.20
2022-11-27T19:19:11.703Z,13.20
2022-11-27T19:21:56.552Z,13.30
2022-11-27T19:24:25.047Z,13.30
2022-11-27T19:26:53.405Z,13.30
2022-11-27T19:29:21.885Z,13.30
2022-11-27T19:31:50.385Z,13.20
2022-11-27T19:34:19.343Z,13.20
2022-11-27T19:36:47.729Z,13.20
2022-11-27T19:39:17.553Z,13.30
2022-11-27T19:41:45.945Z,13.30
2022-11-27T19:44:15.688Z,13.40
2022-11-27T19:46:44.923Z,13.40
2022-11-27T19:49:14.821Z,13.40
2022-11-27T19:51:43.177Z,13.40
2022-11-27T19:54:12.946Z,13.30
2022-11-27T19:56:42.865Z,13.30
2022-11-27T19:59:11.594Z,13.20
2022-11-27T20:01:40.658Z,13.10
2022-11-27T20:04:11.019Z,13.10
2022-11-27T20:06:39.790Z,13.20
2022-11-27T20:09:08.424Z,13.00
2022-11-27T20:11:36.851Z,12.90
2022-11-27T20:14:06.948Z,12.90
2022-11-27T20:16:36.252Z,12.90
2022-11-27T20:19:06.195Z,13.00
2022-11-27T20:21:34.631Z,13.00
2022-11-27T20:24:03.336Z,13.00
2022-11-27T20:26:31.809Z,13.00
2022-11-27T20:29:00.287Z,13.00
2022-11-27T20:31:31.819Z,13.00
2022-11-27T20:34:02.973Z,12.90
2022-11-27T20:36:32.907Z,12.80
2022-11-27T20:39:01.525Z,12.80
2022-11-27T20:41:30.099Z,12.70
2022-11-27T20:43:59.569Z,12.60
2022-11-27T20:46:28.494Z,12.60
2022-11-27T20:48:58.539Z,12.50
2022-11-27T20:51:30.879Z,12.50
2022-11-27T20:54:00.044Z,12.60
2022-11-27T20:56:29.477Z,12.70
2022-11-27T20:58:58.762Z,12.70
2022-11-27T21:01:29.639Z,12.60
2022-11-27T21:04:00.684Z,12.60
2022-11-27T21:06:30.127Z,12.60
2022-11-27T21:09:00.488Z,12.70
2022-11-27T21:11:29.821Z,12.70
2022-11-27T21:13:58.961Z,12.60
2022-11-27T21:16:28.377Z,12.60
2022-11-27T21:18:57.512Z,12.50
2022-11-27T21:21:27.973Z,12.50
2022-11-27T21:23:56.608Z,12.50
2022-11-27T21:26:25.188Z,12.50
2022-11-27T21:28:53.700Z,12.50
2022-11-27T21:31:22.805Z,12.40
2022-11-27T21:33:52.153Z,12.40
2022-11-27T21:36:21.149Z,12.50
2022-11-27T21:38:51.175Z,12.50
2022-11-27T21:41:20.067Z,12.50
2022-11-27T21:43:49.211Z,12.50
2022-11-27T21:46:18.991Z,12.40
2022-11-27T21:48:48.207Z,12.40
2022-11-27T21:51:17.248Z,12.50
2022-11-27T21:53:46.994Z,12.50
2022-11-27T21:56:17.769Z,12.40
2022-11-27T21:58:46.194Z,12.50
2022-11-27T22:01:15.918Z,12.50
2022-11-27T22:03:44.656Z,12.40
2022-11-27T22:06:14.686Z,12.40
2022-11-27T22:08:43.645Z,12.50
2022-11-27T22:11:13.104Z,12.50
2022-11-27T22:13:43.353Z,12.50
2022-11-27T22:16:12.914Z,12.50
2022-11-27T22:18:41.329Z,12.60
2022-11-27T22:21:10.567Z,12.50
2022-11-27T22:23:39.570Z,12.50
2022-11-27T22:26:08.973Z,12.50
2022-11-27T22:28:37.668Z,12.50
2022-11-27T22:31:11.023Z,12.50
2022-11-27T22:33:39.456Z,12.50
2022-11-27T22:36:14.575Z,12.60
2022-11-27T22:38:42.959Z,12.60
2022-11-27T22:41:12.138Z,12.60
2022-11-27T22:43:40.924Z,12.50
2022-11-27T22:46:12.257Z,12.40
2022-11-27T22:48:40.738Z,12.40
2022-11-27T22:51:09.327Z,12.60
2022-11-27T22:53:37.872Z,12.60
2022-11-27T22:56:07.118Z,12.60
2022-11-27T22:58:41.028Z,12.60
2022-11-27T23:01:15.752Z,12.50
2022-11-27T23:03:44.253Z,12.60
2022-11-27T23:06:13.030Z,12.70
2022-11-27T23:08:42.209Z,12.70
2022-11-27T23:11:10.868Z,12.70
2022-11-27T23:13:39.277Z,12.60
2022-11-27T23:16:08.180Z,12.70
2022-11-27T23:18:39.401Z,12.80
2022-11-27T23:21:08.501Z,12.80
2022-11-27T23:23:36.993Z,12.80
2022-11-27T23:26:05.539Z,12.80
2022-11-27T23:28:33.990Z,12.70
2022-11-27T23:31:22.673Z,12.70
2022-11-27T23:33:55.551Z,12.70
2022-11-27T23:36:23.951Z,12.70
2022-11-27T23:38:52.456Z,12.80
2022-11-27T23:41:21.777Z,12.80
2022-11-27T23:43:50.326Z,12.70
2022-11-27T23:46:20.303Z,12.80
2022-11-27T23:48:48.957Z,12.70
2022-11-27T23:51:19.657Z,12.60
2022-11-27T23:53:48.061Z,12.70
2022-11-27T23:56:17.317Z,12.70
2022-11-27T23:58:47.579Z,12.70
